createdAt,value
2023-02-14T00:04:54.352Z,79.10
2023-02-14T00:09:56.509Z,79.30
2023-02-14T00:14:59.983Z,79.70
2023-02-14T00:20:02.197Z,81.80
2023-02-14T00:25:04.834Z,82.00
2023-02-14T00:30:11.639Z,81.10
2023-02-14T00:35:13.993Z,81.40
2023-02-14T00:40:16.695Z,81.30
2023-02-14T00:45:20.258Z,81.80
2023-02-14T00:50:22.441Z,81.20
2023-02-14T00:55:27.058Z,81.20
2023-02-14T01:00:30.673Z,81.50
2023-02-14T01:05:32.925Z,81.10
2023-02-14T01:10:36.679Z,81.30
2023-02-14T01:15:43.510Z,81.10
2023-02-14T01:20:46.408Z,82.10
2023-02-14T01:25:48.616Z,81.80
2023-02-14T01:30:52.176Z,80.90
2023-02-14T01:35:54.509Z,81.10
2023-02-14T01:40:56.891Z,81.50
2023-02-14T01:46:01.009Z,81.20
2023-02-14T01:51:03.525Z,81.70
2023-02-14T01:56:11.669Z,82.30
2023-02-14T02:01:17.935Z,81.50
2023-02-14T02:06:26.228Z,81.20
2023-02-14T02:11:29.113Z,80.80
2023-02-14T02:16:56.297Z,81.10
2023-02-14T02:22:29.833Z,82.40
2023-02-14T02:28:01.253Z,82.00
2023-02-14T02:33:59.119Z,81.20
2023-02-14T02:39:28.614Z,82.50
2023-02-14T02:44:44.777Z,82.60
2023-02-14T02:49:58.268Z,82.00
2023-02-14T02:55:13.739Z,81.10
2023-02-14T03:00:18.709Z,80.60
2023-02-14T03:05:21.532Z,80.70
2023-02-14T03:10:35.353Z,80.20
2023-02-14T03:16:10.855Z,80.50
2023-02-14T03:21:28.968Z,81.50
2023-02-14T03:26:39.599Z,82.30
2023-02-14T03:31:55.873Z,81.80
2023-02-14T03:37:07.073Z,81.40
2023-02-14T03:42:21.285Z,80.70
2023-02-14T03:47:29.606Z,80.50
2023-02-14T03:52:34.215Z,81.20
2023-02-14T03:57:46.721Z,81.20
2023-02-14T04:02:55.446Z,82.20
2023-02-14T04:07:59.174Z,83.20
2023-02-14T04:13:02.669Z,83.00
2023-02-14T04:18:05.015Z,83.60
2023-02-14T04:23:07.188Z,82.50
2023-02-14T04:28:10.699Z,83.20
2023-02-14T04:33:13.199Z,83.20
2023-02-14T04:38:15.406Z,83.10
2023-02-14T04:43:19.664Z,83.00
2023-02-14T04:48:21.945Z,83.10
2023-02-14T04:53:24.140Z,82.60
2023-02-14T04:58:27.992Z,82.70
2023-02-14T05:03:30.205Z,82.80
2023-02-14T05:08:32.434Z,83.40
2023-02-14T05:13:36.093Z,83.50
2023-02-14T05:18:38.315Z,83.30
2023-02-14T05:23:41.237Z,82.10
2023-02-14T05:28:44.769Z,82.60
2023-02-14T05:33:47.175Z,82.00
2023-02-14T05:38:49.516Z,82.10
2023-02-14T05:43:53.288Z,82.30
2023-02-14T05:48:55.759Z,83.00
2023-02-14T05:53:58.141Z,83.40
2023-02-14T05:59:01.876Z,83.70
2023-02-14T06:04:04.206Z,82.50
2023-02-14T06:09:06.517Z,81.50
2023-02-14T06:14:10.316Z,81.20
2023-02-14T06:19:12.671Z,81.20
2023-02-14T06:24:15.477Z,82.10
2023-02-14T06:29:22.254Z,81.30
2023-02-14T06:34:24.729Z,82.70
2023-02-14T06:39:27.258Z,82.50
2023-02-14T06:44:31.645Z,82.00
2023-02-14T06:49:34.149Z,81.10
2023-02-14T06:54:37.694Z,83.00
2023-02-14T06:59:42.406Z,82.80
2023-02-14T07:04:46.895Z,82.10
2023-02-14T07:09:51.323Z,81.90
2023-02-14T07:14:56.338Z,80.80
2023-02-14T07:20:00.416Z,81.00
2023-02-14T07:25:09.961Z,82.20
2023-02-14T07:30:18.814Z,82.60
2023-02-14T07:35:24.120Z,82.00
2023-02-14T07:40:27.475Z,80.90
2023-02-14T07:45:46.936Z,80.80
2023-02-14T07:50:53.553Z,81.20
2023-02-14T07:56:05.075Z,81.00
2023-02-14T08:01:11.516Z,81.40
2023-02-14T08:06:38.050Z,81.70
2023-02-14T08:11:49.039Z,81.60
2023-02-14T08:17:03.929Z,82.20
2023-02-14T08:27:36.656Z,79.80
2023-02-14T08:32:40.974Z,78.10
2023-02-14T08:43:51.201Z,78.70
2023-02-14T08:55:27.936Z,80.00
2023-02-14T09:00:38.671Z,79.90
2023-02-14T09:05:42.238Z,78.10
2023-02-14T09:10:49.628Z,78.30
2023-02-14T09:21:28.116Z,79.40
2023-02-14T09:54:23.495Z,76.00
2023-02-14T09:59:53.630Z,76.20
2023-02-14T10:05:15.718Z,75.60
2023-02-14T10:21:50.439Z,75.10
2023-02-14T11:20:34.207Z,72.10
2023-02-14T11:50:15.426Z,71.10
2023-02-14T12:06:51.225Z,71.50
2023-02-14T12:30:48.659Z,70.80
2023-02-14T13:15:40.829Z,70.00
2023-02-14T13:20:54.079Z,69.90
2023-02-14T13:26:03.794Z,70.20
2023-02-14T13:31:18.519Z,69.80
2023-02-14T13:41:30.428Z,69.50
2023-02-14T13:51:58.370Z,68.90
2023-02-14T14:07:47.987Z,68.60
2023-02-14T14:29:56.872Z,68.50
2023-02-14T14:35:04.135Z,68.50
2023-02-14T14:40:33.058Z,68.60
2023-02-14T14:45:39.783Z,69.00
2023-02-14T14:55:50.460Z,69.00
2023-02-14T15:00:54.285Z,68.70
2023-02-14T15:06:08.592Z,68.70
2023-02-14T15:11:15.658Z,68.90
2023-02-14T15:16:23.434Z,68.90
2023-02-14T15:21:27.630Z,69.10
2023-02-14T15:26:34.361Z,68.80
2023-02-14T15:31:41.329Z,69.50
2023-02-14T15:36:46.960Z,70.00
2023-02-14T15:41:53.639Z,70.50
2023-02-14T15:47:02.071Z,70.60
2023-02-14T15:52:06.463Z,70.50
2023-02-14T15:57:21.854Z,70.50
2023-02-14T16:02:34.664Z,70.30
2023-02-14T16:07:37.608Z,70.20
2023-02-14T16:12:41.106Z,70.50
2023-02-14T16:17:45.050Z,70.90
2023-02-14T16:22:51.117Z,70.90
2023-02-14T16:27:53.529Z,71.20
2023-02-14T16:32:57.496Z,71.50
2023-02-14T16:37:59.961Z,71.90
2023-02-14T16:43:02.978Z,71.90
2023-02-14T16:48:08.188Z,72.00
2023-02-14T16:53:27.370Z,72.10
2023-02-14T16:58:36.310Z,72.80
2023-02-14T17:03:40.431Z,73.70
2023-02-14T17:08:48.446Z,73.50
2023-02-14T17:13:52.130Z,73.90
2023-02-14T17:18:56.152Z,75.00
2023-02-14T17:23:59.096Z,75.20
2023-02-14T17:29:01.549Z,74.50
2023-02-14T17:34:06.035Z,74.50
2023-02-14T17:39:08.730Z,74.20
2023-02-14T17:44:11.371Z,74.10
2023-02-14T17:49:14.979Z,74.70
2023-02-14T17:54:17.702Z,74.70
2023-02-14T17:59:20.170Z,75.40
2023-02-14T18:04:24.816Z,76.20
2023-02-14T18:09:27.706Z,76.90
2023-02-14T18:14:30.197Z,76.40
2023-02-14T18:19:34.208Z,75.40
2023-02-14T18:24:37.039Z,74.90
2023-02-14T18:29:39.512Z,74.80
2023-02-14T18:34:43.560Z,75.30
2023-02-14T18:39:46.538Z,75.50
2023-02-14T18:44:49.390Z,76.60
2023-02-14T18:49:54.300Z,76.20
2023-02-14T18:54:56.736Z,76.10
2023-02-14T18:59:59.594Z,76.40
2023-02-14T19:05:03.810Z,76.90
2023-02-14T19:10:08.424Z,76.40
2023-02-14T19:15:10.731Z,77.20
2023-02-14T19:20:15.430Z,78.20
2023-02-14T19:25:17.964Z,78.00
2023-02-14T19:30:23.347Z,77.20
2023-02-14T19:35:27.346Z,76.80
2023-02-14T19:40:30.286Z,76.50
2023-02-14T19:45:33.063Z,76.30
2023-02-14T19:50:38.779Z,76.20
2023-02-14T19:55:41.690Z,76.10
2023-02-14T20:00:44.410Z,76.00
2023-02-14T20:05:49.208Z,76.00
2023-02-14T20:10:51.641Z,76.20
2023-02-14T20:15:54.543Z,76.00
2023-02-14T20:20:59.343Z,75.60
2023-02-14T20:26:02.593Z,74.70
2023-02-14T20:31:08.464Z,74.40
2023-02-14T20:36:13.817Z,74.50
2023-02-14T20:41:17.084Z,74.40
2023-02-14T20:46:21.307Z,74.70
2023-02-14T20:51:26.186Z,74.40
2023-02-14T20:56:30.761Z,74.50
2023-02-14T21:01:34.221Z,74.10
2023-02-14T21:06:40.164Z,74.20
2023-02-14T21:11:42.872Z,74.00
2023-02-14T21:16:45.308Z,74.30
2023-02-14T21:21:49.081Z,74.00
2023-02-14T21:26:51.479Z,74.10
2023-02-14T21:31:53.829Z,74.20
2023-02-14T21:36:57.631Z,74.00
2023-02-14T21:42:00.428Z,73.80
2023-02-14T21:47:02.825Z,73.90
2023-02-14T21:52:06.738Z,74.10
2023-02-14T21:57:09.544Z,73.90
2023-02-14T22:02:12.482Z,74.10
2023-02-14T22:07:16.460Z,74.40
2023-02-14T22:12:18.804Z,73.90
2023-02-14T22:17:21.518Z,73.60
2023-02-14T22:22:25.500Z,74.10
2023-02-14T22:27:27.911Z,74.20
2023-02-14T22:32:30.263Z,74.50
2023-02-14T22:37:34.390Z,74.70
2023-02-14T22:42:36.680Z,74.90
2023-02-14T22:47:39.077Z,77.30
2023-02-14T22:52:42.838Z,79.40
2023-02-14T22:57:45.297Z,79.50
2023-02-14T23:02:47.772Z,79.80
2023-02-14T23:07:51.584Z,79.10
2023-02-14T23:12:53.974Z,79.40
2023-02-14T23:17:56.435Z,78.60
2023-02-14T23:23:00.579Z,78.30
2023-02-14T23:28:03.061Z,77.40
2023-02-14T23:33:05.462Z,77.40
2023-02-14T23:38:09.281Z,78.90
2023-02-14T23:43:11.652Z,78.80
2023-02-14T23:48:14.139Z,78.20
2023-02-14T23:53:17.825Z,78.00
2023-02-14T23:58:20.258Z,77.50
